Time;durP1;ratioP1;P1;durP2;ratioP2;P2;SDS_P1;SDS_P2;PMS_P1;PMS_P2;Temp;Humidity;BMP_temperature;BMP_pressure;BME280_temperature;BME280_humidity;BME280_pressure;Samples;Min_cycle;Max_cycle;Signal;HPM_P1;HPM_P2
2022/05/21 04:04:35;;;;;;;8.00;6.70;;;15.80;99.90;;;;;;5978793;23;20255;-78
2022/05/21 04:07:04;;;;;;;9.73;7.03;;;15.80;99.90;;;;;;4984500;28;20308;-77
2022/05/21 04:09:31;;;;;;;10.07;6.50;;;15.80;99.90;;;;;;4989814;28;20215;-78
2022/05/21 04:12:00;;;;;;;7.90;6.60;;;15.80;99.90;;;;;;4993241;28;20240;-77
2022/05/21 04:14:28;;;;;;;10.13;5.87;;;15.80;99.90;;;;;;4994091;28;20208;-77
2022/05/21 04:16:57;;;;;;;9.87;6.73;;;15.80;99.90;;;;;;4993238;28;20211;-78
2022/05/21 04:19:26;;;;;;;9.07;6.43;;;15.80;99.90;;;;;;4993067;28;20240;-78
2022/05/21 04:21:56;;;;;;;8.20;6.63;;;15.80;99.90;;;;;;4990342;28;20245;-78
2022/05/21 04:24:24;;;;;;;10.00;6.47;;;15.80;99.90;;;;;;4989267;28;20590;-78
2022/05/21 04:26:52;;;;;;;10.70;6.63;;;15.80;99.90;;;;;;4992696;28;20202;-75
2022/05/21 04:29:20;;;;;;;9.17;6.37;;;15.80;99.90;;;;;;4993072;28;20706;-77
2022/05/21 04:31:49;;;;;;;11.00;5.83;;;15.80;99.90;;;;;;4992740;28;20222;-77
2022/05/21 04:34:17;;;;;;;7.07;6.33;;;15.80;99.90;;;;;;4993369;28;20210;-78
2022/05/21 04:36:45;;;;;;;6.97;5.83;;;15.90;99.90;;;;;;4975312;28;20215;-77
2022/05/21 04:39:14;;;;;;;9.50;5.50;;;15.90;99.90;;;;;;4987739;28;20621;-78
2022/05/21 04:41:42;;;;;;;9.80;5.67;;;15.90;99.90;;;;;;4993877;28;20654;-79
2022/05/21 04:44:13;;;;;;;6.83;5.40;;;15.90;99.90;;;;;;4990880;28;20234;-78
2022/05/21 04:46:41;;;;;;;11.13;8.97;;;15.90;99.90;;;;;;4993128;28;20202;-80
2022/05/21 04:49:09;;;;;;;9.23;6.17;;;15.90;99.90;;;;;;4993250;28;20244;-77
2022/05/21 04:51:38;;;;;;;6.53;4.67;;;15.90;99.90;;;;;;4990855;28;20696;-77
2022/05/21 04:54:06;;;;;;;7.03;4.70;;;15.90;99.90;;;;;;4994318;28;20238;-77
2022/05/21 04:56:36;;;;;;;9.50;4.50;;;16.00;99.90;;;;;;4994561;28;20559;-79
2022/05/21 04:59:07;;;;;;;8.07;4.40;;;16.10;99.90;;;;;;4993525;28;20253;-77
2022/05/21 05:01:36;;;;;;;5.30;4.03;;;16.20;99.90;;;;;;4994416;28;20206;-79
2022/05/21 05:04:04;;;;;;;7.13;4.10;;;16.30;99.90;;;;;;4994343;28;20198;-77
2022/05/21 05:06:32;;;;;;;8.17;4.27;;;16.30;99.90;;;;;;4994069;28;20333;-78
2022/05/21 05:09:01;;;;;;;7.97;3.90;;;16.50;99.90;;;;;;4994362;28;20306;-76
2022/05/21 05:11:29;;;;;;;6.30;4.33;;;16.60;99.90;;;;;;4994342;28;20264;-78
2022/05/21 05:13:58;;;;;;;6.53;3.70;;;16.60;99.90;;;;;;4994490;28;20241;-78
2022/05/21 05:16:26;;;;;;;5.90;3.80;;;16.60;99.90;;;;;;4994437;28;20216;-76
2022/05/21 05:18:54;;;;;;;4.60;3.70;;;16.60;99.90;;;;;;4993328;28;20293;-77
2022/05/21 05:21:23;;;;;;;6.70;3.47;;;16.60;99.90;;;;;;4991556;28;20301;-78
2022/05/21 05:23:51;;;;;;;5.40;3.63;;;16.70;99.90;;;;;;4992919;28;20206;-76
2022/05/21 05:26:19;;;;;;;4.23;3.43;;;16.90;99.90;;;;;;4974450;28;20310;-76
2022/05/21 05:28:47;;;;;;;6.87;3.73;;;17.00;99.90;;;;;;4989169;28;20206;-79
2022/05/21 05:31:17;;;;;;;7.07;3.67;;;17.00;99.90;;;;;;4993336;28;20222;-77
2022/05/21 05:33:45;;;;;;;4.37;3.57;;;17.10;99.90;;;;;;4992770;28;20601;-76
2022/05/21 05:36:13;;;;;;;4.57;3.43;;;17.00;99.90;;;;;;4992769;28;20207;-76
2022/05/21 05:38:41;;;;;;;6.20;3.90;;;17.10;99.90;;;;;;4992993;28;20859;-75
2022/05/21 05:41:09;;;;;;;5.80;4.07;;;17.10;99.90;;;;;;4992651;28;20289;-78
2022/05/21 05:43:43;;;;;;;6.13;3.60;;;17.10;99.90;;;;;;4993327;28;20257;-79
2022/05/21 05:46:11;;;;;;;5.37;3.80;;;17.50;99.90;;;;;;4993014;28;20700;-78
2022/05/21 05:48:41;;;;;;;5.50;3.60;;;17.80;99.90;;;;;;4993031;28;20619;-76
2022/05/21 05:51:09;;;;;;;5.50;3.30;;;18.40;99.90;;;;;;4993272;28;20325;-79
2022/05/21 05:53:37;;;;;;;8.47;4.43;;;19.00;99.90;;;;;;4992141;28;20218;-78
2022/05/21 05:56:08;;;;;;;17.10;6.67;;;20.10;99.90;;;;;;4999281;28;20202;-78
2022/05/21 06:01:24;;;;;;;4.90;2.70;;;21.10;99.90;;;;;;4993100;28;20301;-77
2022/05/21 06:03:55;;;;;;;4.97;2.70;;;22.10;99.90;;;;;;4993151;28;20191;-76
2022/05/21 06:06:23;;;;;;;8.77;3.27;;;22.50;99.90;;;;;;4995442;28;20325;-77
2022/05/21 06:08:52;;;;;;;4.67;2.73;;;23.10;99.90;;;;;;5003227;28;20293;-77
2022/05/21 06:11:21;;;;;;;3.43;2.30;;;23.80;99.90;;;;;;5014326;28;20221;-76
2022/05/21 06:13:49;;;;;;;6.20;2.40;;;24.00;99.90;;;;;;5017866;28;20288;-76
2022/05/21 06:16:17;;;;;;;3.90;2.43;;;24.50;99.90;;;;;;5006662;28;20233;-76
2022/05/21 06:18:46;;;;;;;3.87;2.40;;;25.60;99.90;;;;;;4990184;28;20214;-77
2022/05/21 06:21:15;;;;;;;4.20;2.30;;;25.70;99.90;;;;;;4985084;28;20231;-76
2022/05/21 06:23:44;;;;;;;4.75;2.22;;;25.90;99.90;;;;;;4972026;28;20310;-76
2022/05/21 06:26:13;;;;;;;4.75;2.30;;;26.50;99.30;;;;;;4971703;28;20298;-76
2022/05/21 06:28:41;;;;;;;3.80;2.13;;;25.50;99.90;;;;;;4971502;28;21046;-76
2022/05/21 06:31:09;;;;;;;3.70;2.40;;;24.80;99.90;;;;;;4974014;28;20230;-74
2022/05/21 06:33:38;;;;;;;4.67;2.47;;;24.50;99.90;;;;;;4991218;28;20217;-76
2022/05/21 06:36:08;;;;;;;3.20;2.00;;;24.70;99.90;;;;;;4992206;28;20241;-77
2022/05/21 06:38:39;;;;;;;3.17;2.20;;;24.70;99.90;;;;;;4992170;28;20747;-75
2022/05/21 06:41:08;;;;;;;6.70;2.10;;;24.50;99.90;;;;;;4992528;28;20194;-77
2022/05/21 06:43:36;;;;;;;4.60;2.10;;;24.60;99.90;;;;;;4992599;28;20202;-75
2022/05/21 06:46:05;;;;;;;3.58;2.10;;;25.20;99.90;;;;;;4992769;28;20270;-76
2022/05/21 06:48:33;;;;;;;3.58;2.15;;;25.80;98.30;;;;;;4992354;28;20310;-75
2022/05/21 06:51:05;;;;;;;3.47;1.95;;;26.70;96.70;;;;;;4992365;28;20618;-75
2022/05/21 06:53:34;;;;;;;8.23;2.22;;;27.10;96.90;;;;;;4989648;28;20214;-78
2022/05/21 06:56:08;;;;;;;2.95;1.80;;;28.10;93.90;;;;;;4991813;28;20210;-76
2022/05/21 06:58:37;;;;;;;4.22;2.10;;;28.00;91.80;;;;;;4992233;28;20210;-76
2022/05/21 07:01:05;;;;;;;3.75;1.80;;;28.10;92.00;;;;;;4991548;28;20759;-76
2022/05/21 07:03:34;;;;;;;4.45;1.77;;;28.70;90.40;;;;;;4992319;28;20194;-76
2022/05/21 07:08:48;;;;;;;4.53;2.80;;;28.40;88.40;;;;;;4992186;28;20214;-76
2022/05/21 07:11:18;;;;;;;3.40;1.63;;;28.20;88.60;;;;;;4992091;28;20217;-75
2022/05/21 07:13:46;;;;;;;5.07;1.67;;;28.10;90.00;;;;;;4991558;28;20317;-75
2022/05/21 07:16:14;;;;;;;5.13;1.60;;;28.40;89.90;;;;;;4992502;28;20245;-77
2022/05/21 07:18:42;;;;;;;1.95;1.55;;;29.10;87.50;;;;;;4992211;28;20276;-76
2022/05/21 07:21:15;;;;;;;3.95;1.80;;;29.20;83.60;;;;;;4991953;28;20751;-75
2022/05/21 07:23:44;;;;;;;2.33;1.67;;;29.30;80.90;;;;;;4991725;28;20209;-76
2022/05/21 07:26:12;;;;;;;4.38;1.88;;;29.60;82.10;;;;;;4986315;28;20289;-76
2022/05/21 07:28:41;;;;;;;2.13;1.60;;;29.60;80.70;;;;;;4972851;28;20551;-75
2022/05/21 07:31:10;;;;;;;3.70;1.55;;;29.60;78.30;;;;;;4972001;28;20996;-75
2022/05/21 07:33:40;;;;;;;4.68;1.38;;;29.80;80.40;;;;;;4989738;28;20257;-77
2022/05/21 07:36:08;;;;;;;4.43;1.50;;;29.70;73.50;;;;;;4991396;28;20240;-75
2022/05/21 07:38:36;;;;;;;1.92;1.40;;;29.90;76.20;;;;;;4991972;28;20238;-75
2022/05/21 07:41:04;;;;;;;2.00;1.77;;;29.60;73.80;;;;;;4991561;28;20393;-76
2022/05/21 07:43:33;;;;;;;3.60;1.60;;;29.50;73.50;;;;;;4991903;28;20206;-76
2022/05/21 07:46:03;;;;;;;2.40;1.80;;;29.60;74.60;;;;;;4978101;28;20250;-75
2022/05/21 07:48:31;;;;;;;2.63;1.65;;;28.70;76.10;;;;;;4973374;28;20217;-77
2022/05/21 07:51:06;;;;;;;5.38;1.75;;;29.80;73.10;;;;;;4973134;28;20254;-77
2022/05/21 07:53:37;;;;;;;5.13;1.70;;;29.80;73.40;;;;;;4987786;28;20354;-76
2022/05/21 07:56:10;;;;;;;2.00;1.60;;;29.80;71.30;;;;;;4991999;28;20303;-76
2022/05/21 07:58:39;;;;;;;1.60;1.50;;;29.50;72.20;;;;;;4974206;28;20688;-78
2022/05/21 08:01:12;;;;;;;4.53;1.70;;;28.80;74.70;;;;;;4972621;28;20211;-77
2022/05/21 08:03:45;;;;;;;9.88;7.40;;;29.00;73.60;;;;;;4989017;28;20277;-76
2022/05/21 08:06:16;;;;;;;2.15;1.40;;;29.40;72.70;;;;;;4993353;28;20284;-76
2022/05/21 08:08:43;;;;;;;2.10;1.60;;;29.50;72.30;;;;;;4989554;28;20210;-76
2022/05/21 08:11:12;;;;;;;2.33;1.50;;;29.80;69.60;;;;;;4983080;28;20237;-74
2022/05/21 08:13:40;;;;;;;3.30;1.70;;;30.50;70.60;;;;;;4991064;28;20221;-75
2022/05/21 08:16:10;;;;;;;2.35;1.60;;;30.10;72.20;;;;;;4975910;28;20219;-75
2022/05/21 08:18:38;;;;;;;2.67;1.70;;;30.00;71.20;;;;;;4975760;28;20211;-76
2022/05/21 08:21:06;;;;;;;2.67;1.70;;;30.00;69.70;;;;;;4982280;28;20202;-77
2022/05/21 08:29:06;;;;;;;1.63;1.45;;;30.80;69.60;;;;;;4986963;28;20684;-77
2022/05/21 08:31:36;;;;;;;3.83;1.80;;;30.40;67.40;;;;;;4989845;28;20290;-75
2022/05/21 08:34:04;;;;;;;2.35;1.55;;;29.50;70.30;;;;;;4994586;28;20288;-75
2022/05/21 08:36:32;;;;;;;2.55;1.60;;;29.80;69.70;;;;;;4993102;28;20250;-75
2022/05/21 08:39:00;;;;;;;1.70;1.40;;;29.90;71.50;;;;;;4992569;28;20203;-77
2022/05/21 08:41:32;;;;;;;4.50;1.90;;;30.50;71.90;;;;;;4985920;28;20229;-75
2022/05/21 08:44:03;;;;;;;2.28;1.60;;;30.10;67.90;;;;;;4993975;28;20226;-75
2022/05/21 08:46:57;;;;;;;2.03;1.50;;;30.20;69.50;;;;;;5007404;28;20263;-75
2022/05/21 08:49:30;;;;;;;2.35;1.60;;;29.80;67.80;;;;;;5002754;28;20209;-77
2022/05/21 08:52:07;;;;;;;1.50;1.40;;;29.80;68.10;;;;;;4994328;28;20427;-76
2022/05/21 08:54:40;;;;;;;3.97;1.80;;;29.40;66.90;;;;;;4993957;28;20272;-75
2022/05/21 08:57:14;;;;;;;1.85;1.50;;;29.60;67.50;;;;;;4994505;28;20203;-76
2022/05/21 08:59:47;;;;;;;2.95;1.60;;;30.20;69.90;;;;;;4992562;28;20226;-76
2022/05/21 09:02:30;;;;;;;2.80;1.40;;;29.50;68.90;;;;;;4994695;28;20571;-75
2022/05/21 09:04:59;;;;;;;2.72;1.50;;;29.10;65.70;;;;;;4976341;28;20265;-77
2022/05/21 09:07:38;;;;;;;1.50;1.40;;;29.60;66.00;;;;;;4975424;28;20708;-76
2022/05/21 09:10:20;;;;;;;1.48;1.38;;;28.90;68.50;;;;;;4991004;28;20281;-76
2022/05/21 09:12:57;;;;;;;1.92;1.40;;;29.50;67.90;;;;;;4976250;28;20606;-75
2022/05/21 09:18:15;;;;;;;1.48;1.30;;;29.80;65.00;;;;;;4995872;28;20230;-77
2022/05/21 09:20:52;;;;;;;2.30;1.50;;;30.30;64.00;;;;;;4993847;28;20237;-76
2022/05/21 09:23:23;;;;;;;3.47;1.50;;;30.50;63.10;;;;;;4995211;28;20820;-75
2022/05/21 09:26:05;;;;;;;1.98;1.20;;;30.00;66.40;;;;;;4994472;28;20226;-75
2022/05/21 09:28:37;;;;;;;6.50;5.30;;;31.20;64.70;;;;;;4992522;28;20254;-76
2022/05/21 09:31:07;;;;;;;1.55;1.40;;;31.70;62.30;;;;;;4995371;28;20595;-77
2022/05/21 09:33:45;;;;;;;2.88;1.50;;;31.40;58.90;;;;;;4994079;28;20240;-76
2022/05/21 09:36:18;;;;;;;2.20;1.30;;;31.00;62.20;;;;;;4992936;28;20418;-74
2022/05/21 09:38:51;;;;;;;2.15;1.35;;;31.00;64.40;;;;;;4992512;28;20198;-77
2022/05/21 09:41:21;;;;;;;2.47;1.35;;;31.40;65.00;;;;;;4993037;28;20257;-77
2022/05/21 09:46:39;;;;;;;3.83;1.40;;;32.10;65.20;;;;;;4992968;28;20638;-75
2022/05/21 09:49:22;;;;;;;2.53;1.20;;;31.60;61.40;;;;;;4994675;28;20317;-76
2022/05/21 09:51:58;;;;;;;4.03;1.27;;;32.30;61.50;;;;;;5005842;28;20659;-75
2022/05/21 09:54:29;;;;;;;1.63;1.45;;;31.80;60.10;;;;;;4993793;28;20226;-78
2022/05/21 09:56:59;;;;;;;2.08;1.58;;;30.60;63.00;;;;;;4996094;28;20233;-77
2022/05/21 09:59:30;;;;;;;1.80;1.55;;;30.10;63.90;;;;;;4993313;28;20202;-77
2022/05/21 10:02:01;;;;;;;1.83;1.30;;;29.90;61.40;;;;;;4991959;28;20242;-76
2022/05/21 10:04:45;;;;;;;2.25;1.30;;;30.10;64.40;;;;;;4996192;28;20214;-77
2022/05/21 10:10:58;;;;;;;2.70;1.42;;;30.20;62.30;;;;;;4992369;28;20230;-77
2022/05/21 10:13:03;;;;;;;2.50;1.50;;;30.90;58.90;;;;;;4993305;28;20644;-76
2022/05/21 10:15:40;;;;;;;3.92;1.20;;;30.40;61.10;;;;;;4992629;28;20213;-76
2022/05/21 10:18:18;;;;;;;2.45;1.35;;;30.30;60.70;;;;;;4990675;28;20668;-76
2022/05/21 10:20:54;;;;;;;3.95;1.30;;;30.50;60.60;;;;;;4988080;28;20695;-77
2022/05/21 10:23:31;;;;;;;1.15;0.98;;;30.60;58.90;;;;;;4992186;28;20240;-76
2022/05/21 10:26:09;;;;;;;3.70;1.08;;;30.70;57.60;;;;;;4992680;28;20297;-79
2022/05/21 10:28:54;;;;;;;1.42;1.00;;;30.80;58.00;;;;;;4992409;28;20196;-77
2022/05/21 10:31:39;;;;;;;4.13;1.30;;;31.00;58.50;;;;;;4992326;28;20289;-76
2022/05/21 10:34:19;;;;;;;1.50;1.00;;;31.00;56.10;;;;;;4999258;28;20221;-78
2022/05/21 10:37:04;;;;;;;3.60;1.98;;;31.00;59.00;;;;;;5003652;28;20792;-76
2022/05/21 10:40:00;;;;;;;1.95;1.08;;;30.80;56.00;;;;;;4991938;28;20209;-76
2022/05/21 10:42:49;;;;;;;1.30;1.15;;;30.80;56.30;;;;;;4992903;28;20194;-75
2022/05/21 10:45:20;;;;;;;2.38;1.17;;;30.50;56.00;;;;;;4993069;28;20663;-75
2022/05/21 10:48:18;;;;;;;1.00;0.90;;;30.30;59.40;;;;;;4994392;28;20342;-76
2022/05/21 10:50:52;;;;;;;1.23;0.98;;;30.20;58.40;;;;;;4992915;28;20668;-76
2022/05/21 10:53:46;;;;;;;1.75;1.10;;;30.30;57.90;;;;;;4992999;28;20735;-77
2022/05/21 10:56:30;;;;;;;1.98;1.20;;;30.60;59.30;;;;;;4990853;28;20613;-77
2022/05/21 10:59:19;;;;;;;0.90;0.90;;;30.70;55.80;;;;;;4991835;28;20290;-76
2022/05/21 11:01:54;;;;;;;2.75;0.98;;;30.90;54.80;;;;;;4992051;28;20249;-77
2022/05/21 11:04:39;;;;;;;0.93;0.80;;;30.70;58.30;;;;;;4991686;28;20625;-77
2022/05/21 11:07:29;;;;;;;1.02;0.93;;;31.00;57.00;;;;;;4992436;28;20258;-77
2022/05/21 11:10:07;;;;;;;1.30;1.10;;;30.50;58.60;;;;;;4991769;28;20285;-78
2022/05/21 11:12:45;;;;;;;1.88;1.10;;;30.80;59.40;;;;;;4993421;28;20198;-76
2022/05/21 11:15:23;;;;;;;2.90;1.00;;;31.00;58.80;;;;;;4992498;28;20691;-78
2022/05/21 11:17:55;;;;;;;0.93;0.70;;;30.80;56.40;;;;;;4993062;28;20632;-78
2022/05/21 11:20:28;;;;;;;1.50;1.00;;;30.70;56.20;;;;;;4992981;28;20301;-78
2022/05/21 11:23:01;;;;;;;1.65;1.05;;;30.00;57.20;;;;;;4994091;28;20661;-78
2022/05/21 11:25:38;;;;;;;2.15;1.20;;;29.50;58.30;;;;;;4993698;28;20568;-74
2022/05/21 11:28:21;;;;;;;1.33;1.20;;;29.10;60.50;;;;;;4994456;28;20229;-75
2022/05/21 11:30:53;;;;;;;1.83;1.10;;;28.60;58.90;;;;;;4994508;28;20295;-75
2022/05/21 11:39:01;;;;;;;1.08;1.00;;;27.80;62.90;;;;;;4977698;28;20236;-76
2022/05/21 11:41:58;;;;;;;1.45;0.95;;;27.80;63.20;;;;;;4977037;28;20213;-77
2022/05/21 11:47:52;;;;;;;3.23;1.10;;;27.40;63.00;;;;;;5001048;28;20294;-76
2022/05/21 11:50:26;;;;;;;1.83;0.97;;;27.30;65.20;;;;;;4995738;28;20612;-76
2022/05/21 11:53:05;;;;;;;2.37;1.10;;;26.80;62.70;;;;;;4996231;28;20249;-79
2022/05/21 11:56:00;;;;;;;2.33;0.90;;;26.40;63.40;;;;;;4995989;28;20245;-78
2022/05/21 11:59:17;;;;;;;1.73;0.70;;;26.60;67.00;;;;;;4996058;28;20207;-77
2022/05/21 12:02:17;;;;;;;1.37;0.90;;;26.30;62.60;;;;;;4996052;28;20206;-75
2022/05/21 12:05:02;;;;;;;2.33;1.03;;;26.30;62.70;;;;;;4994642;28;20729;-79
2022/05/21 12:07:53;;;;;;;2.93;0.80;;;26.50;65.00;;;;;;4996093;28;20297;-79
2022/05/21 12:10:26;;;;;;;1.00;0.87;;;26.30;64.80;;;;;;4994703;28;20655;-75
2022/05/21 12:13:16;;;;;;;0.83;0.83;;;26.30;63.20;;;;;;4996562;28;20205;-75
2022/05/21 12:15:50;;;;;;;0.90;0.80;;;26.40;68.30;;;;;;4995155;28;20261;-77
2022/05/21 12:18:40;;;;;;;2.00;0.80;;;26.50;65.20;;;;;;4996266;28;20202;-76
2022/05/21 12:22:01;;;;;;;1.37;0.90;;;26.30;65.00;;;;;;4994938;28;20201;-76
2022/05/21 12:24:40;;;;;;;1.07;0.90;;;26.30;65.30;;;;;;4980652;28;20241;-75
2022/05/21 12:27:22;;;;;;;4.57;0.90;;;26.30;67.70;;;;;;4995692;28;20249;-76
2022/05/21 12:29:54;;;;;;;2.03;0.90;;;26.50;66.70;;;;;;4995586;28;20205;-75
2022/05/21 12:32:25;;;;;;;2.13;1.00;;;26.40;67.40;;;;;;4991367;28;20229;-75
2022/05/21 12:35:29;;;;;;;2.10;1.00;;;26.20;65.10;;;;;;4995357;28;20210;-76
2022/05/21 12:38:05;;;;;;;1.57;1.23;;;26.20;65.10;;;;;;4985387;28;20289;-77
2022/05/21 12:40:42;;;;;;;1.37;0.90;;;26.30;65.70;;;;;;4994891;28;20236;-77
2022/05/21 12:43:14;;;;;;;1.60;1.00;;;26.00;66.50;;;;;;4991783;28;20281;-76
2022/05/21 12:45:45;;;;;;;0.80;0.80;;;26.00;68.50;;;;;;4994950;28;20215;-76
2022/05/21 12:48:20;;;;;;;1.73;0.90;;;26.10;68.90;;;;;;4987194;28;20668;-75
2022/05/21 12:50:51;;;;;;;0.90;0.80;;;26.00;67.50;;;;;;4994186;28;20580;-75
2022/05/21 12:53:24;;;;;;;2.53;1.10;;;26.20;67.60;;;;;;4994739;28;20616;-76
2022/05/21 12:56:04;;;;;;;1.53;1.03;;;26.20;68.20;;;;;;4994749;28;20775;-76
2022/05/21 12:58:33;;;;;;;3.90;1.00;;;26.20;68.20;;;;;;4994756;28;20268;-76
2022/05/21 13:01:01;;;;;;;4.30;1.13;;;26.10;65.90;;;;;;4996102;28;20245;-75
2022/05/21 13:03:34;;;;;;;3.63;0.90;;;26.10;66.80;;;;;;4995776;28;20202;-75
2022/05/21 13:06:04;;;;;;;2.00;1.00;;;26.00;70.50;;;;;;5001712;28;20597;-76
2022/05/21 13:08:34;;;;;;;1.50;0.90;;;25.80;66.40;;;;;;4994967;28;20258;-75
2022/05/21 13:11:06;;;;;;;1.07;0.80;;;25.90;66.20;;;;;;4994272;28;20600;-76
2022/05/21 13:13:37;;;;;;;2.17;0.70;;;25.60;61.70;;;;;;4994795;28;20293;-75
2022/05/21 13:16:07;;;;;;;1.90;0.73;;;25.60;61.30;;;;;;4992819;28;20221;-76
2022/05/21 13:18:58;;;;;;;3.07;0.73;;;25.70;65.40;;;;;;4994652;28;20230;-78
2022/05/21 13:21:42;;;;;;;1.23;0.80;;;25.40;64.40;;;;;;4994958;28;20214;-77
2022/05/21 13:24:20;;;;;;;3.03;0.83;;;24.80;65.50;;;;;;4995152;28;20322;-76
2022/05/21 13:27:03;;;;;;;1.43;0.83;;;24.40;64.40;;;;;;4992857;28;20277;-76
2022/05/21 13:29:31;;;;;;;2.63;1.00;;;24.50;67.50;;;;;;4994645;28;20249;-77
2022/05/21 13:32:16;;;;;;;0.67;0.67;;;24.60;68.10;;;;;;4998185;28;20207;-76
2022/05/21 13:34:46;;;;;;;1.30;0.50;;;25.00;64.40;;;;;;4994240;28;20652;-77
2022/05/21 13:37:14;;;;;;;0.77;0.60;;;25.30;65.50;;;;;;4966706;28;20322;-74
2022/05/21 13:39:42;;;;;;;6.13;0.73;;;25.60;63.00;;;;;;4974926;28;20243;-77
2022/05/21 13:42:13;;;;;;;0.97;0.50;;;25.60;66.40;;;;;;4975154;28;20203;-79
2022/05/21 13:44:46;;;;;;;3.07;0.70;;;25.60;66.30;;;;;;4975077;28;20238;-75
2022/05/21 13:47:24;;;;;;;0.80;0.60;;;25.50;59.80;;;;;;4989792;28;20206;-77
2022/05/21 13:49:55;;;;;;;2.20;0.73;;;25.50;65.80;;;;;;4993666;28;20717;-77
2022/05/21 13:52:26;;;;;;;0.80;0.50;;;25.70;63.40;;;;;;4993858;28;20252;-77
2022/05/21 13:54:55;;;;;;;3.47;0.90;;;25.90;63.50;;;;;;4993203;28;20319;-75
2022/05/21 13:57:25;;;;;;;3.10;0.73;;;25.70;63.30;;;;;;4990873;28;20304;-77
2022/05/21 13:59:56;;;;;;;1.03;0.73;;;25.70;62.40;;;;;;4993151;28;20202;-77
2022/05/21 14:02:34;;;;;;;0.97;0.60;;;25.50;65.90;;;;;;4997898;28;20210;-76
2022/05/21 14:05:23;;;;;;;0.70;0.50;;;25.50;65.40;;;;;;4991877;28;20276;-77
2022/05/21 14:07:54;;;;;;;0.80;0.60;;;25.30;66.50;;;;;;4991640;28;20264;-75
2022/05/21 14:10:39;;;;;;;0.60;0.60;;;25.30;61.80;;;;;;4993274;28;20663;-77
2022/05/21 14:13:34;;;;;;;1.90;0.70;;;25.50;67.60;;;;;;4995920;28;20706;-77
2022/05/21 14:16:05;;;;;;;2.03;0.80;;;25.20;65.40;;;;;;4990713;28;20211;-76
2022/05/21 14:18:35;;;;;;;2.00;0.77;;;25.20;66.80;;;;;;4977396;28;20667;-76
2022/05/21 14:21:18;;;;;;;0.97;0.70;;;25.20;63.80;;;;;;4994843;28;20217;-77
2022/05/21 14:23:50;;;;;;;2.17;0.80;;;25.30;66.50;;;;;;4971692;28;20305;-77
2022/05/21 14:26:27;;;;;;;2.17;0.97;;;25.10;63.60;;;;;;4974651;28;20740;-76
2022/05/21 14:28:56;;;;;;;0.90;0.70;;;25.00;61.00;;;;;;4973782;28;20202;-75
2022/05/21 14:31:29;;;;;;;0.43;0.43;;;24.90;63.60;;;;;;4975385;28;20305;-76
2022/05/21 14:33:59;;;;;;;1.93;0.90;;;24.90;66.10;;;;;;4992934;28;20224;-75
2022/05/21 14:36:35;;;;;;;3.47;0.80;;;24.90;62.80;;;;;;4994134;28;20218;-78
2022/05/21 14:39:04;;;;;;;0.83;0.77;;;24.90;64.50;;;;;;4994515;28;20758;-75
2022/05/21 14:41:36;;;;;;;3.90;0.83;;;25.00;63.60;;;;;;4993915;28;20214;-74
2022/05/21 14:44:13;;;;;;;1.83;0.80;;;24.80;62.80;;;;;;4993194;28;20229;-74
2022/05/21 14:49:27;;;;;;;2.23;0.63;;;24.80;63.90;;;;;;4973331;28;20290;-76
2022/05/21 14:54:45;;;;;;;1.10;0.77;;;24.80;64.60;;;;;;4992759;28;20210;-75
2022/05/21 14:57:15;;;;;;;1.17;0.60;;;24.60;67.30;;;;;;4995268;28;20264;-77
2022/05/21 14:59:44;;;;;;;1.43;0.63;;;24.60;67.30;;;;;;4992097;28;20904;-74
2022/05/21 15:02:13;;;;;;;2.13;0.87;;;24.40;65.10;;;;;;4993577;28;20236;-76
2022/05/21 15:04:41;;;;;;;2.07;0.80;;;24.40;66.00;;;;;;4992462;28;20256;-77
2022/05/21 15:07:15;;;;;;;0.83;0.80;;;24.30;68.90;;;;;;4993787;28;20725;-76
2022/05/21 15:09:44;;;;;;;3.77;1.00;;;24.60;65.40;;;;;;4992274;28;20198;-76
2022/05/21 15:12:15;;;;;;;1.73;0.87;;;24.50;68.50;;;;;;4991008;28;20257;-76
2022/05/21 15:14:44;;;;;;;2.33;0.70;;;24.50;69.30;;;;;;4994719;28;20205;-75
2022/05/21 15:17:13;;;;;;;1.70;0.70;;;24.40;66.90;;;;;;4997201;28;20324;-76
2022/05/21 15:19:41;;;;;;;2.37;0.60;;;24.40;68.70;;;;;;4998168;28;20256;-76
2022/05/21 15:22:14;;;;;;;1.23;0.77;;;24.30;67.60;;;;;;4990588;28;20230;-76
2022/05/21 15:24:43;;;;;;;4.83;0.90;;;24.20;67.50;;;;;;4997363;28;20198;-77
2022/05/21 15:27:15;;;;;;;1.20;0.60;;;24.00;68.60;;;;;;4996854;28;20221;-76
2022/05/21 15:29:44;;;;;;;1.77;0.97;;;24.00;68.90;;;;;;4996380;28;20264;-77
2022/05/21 15:32:14;;;;;;;3.70;0.90;;;24.10;70.00;;;;;;4996398;28;20206;-77
2022/05/21 15:34:43;;;;;;;1.83;0.90;;;24.00;69.20;;;;;;4996364;28;20216;-77
2022/05/21 15:37:12;;;;;;;2.73;0.90;;;23.90;70.00;;;;;;4996586;28;20226;-78
2022/05/21 15:39:41;;;;;;;2.60;1.37;;;23.90;69.10;;;;;;4996800;28;20276;-76
2022/05/21 15:42:11;;;;;;;1.17;1.07;;;23.90;68.90;;;;;;4994245;28;20699;-76
2022/05/21 15:44:40;;;;;;;1.70;0.70;;;24.00;70.70;;;;;;4997981;28;20238;-77
2022/05/21 15:47:08;;;;;;;3.50;0.80;;;23.70;70.20;;;;;;4996614;28;20257;-77
2022/05/21 15:49:36;;;;;;;1.77;0.67;;;23.60;71.80;;;;;;4996926;28;20297;-76
2022/05/21 15:52:17;;;;;;;2.00;0.70;;;23.60;70.60;;;;;;5000675;28;20558;-76
2022/05/21 15:54:46;;;;;;;1.30;0.90;;;23.50;73.20;;;;;;4995969;28;20209;-76
2022/05/21 15:57:14;;;;;;;2.00;0.70;;;23.60;72.80;;;;;;4995742;28;20254;-77
2022/05/21 15:59:43;;;;;;;1.67;0.90;;;23.40;71.60;;;;;;4995650;28;20264;-76
2022/05/21 16:02:20;;;;;;;2.63;0.90;;;23.50;71.60;;;;;;4995549;28;20278;-77
2022/05/21 16:04:52;;;;;;;2.93;1.20;;;23.40;70.00;;;;;;4995486;28;20218;-76
2022/05/21 16:07:21;;;;;;;1.00;0.80;;;23.40;71.00;;;;;;4995866;28;20195;-76
2022/05/21 16:09:52;;;;;;;3.47;0.83;;;23.30;70.10;;;;;;4995440;28;20771;-76
2022/05/21 16:12:21;;;;;;;1.63;0.80;;;23.30;69.60;;;;;;4994065;28;20656;-77
2022/05/21 16:14:49;;;;;;;2.13;1.00;;;23.20;71.70;;;;;;4995645;28;20653;-78
2022/05/21 16:17:18;;;;;;;1.97;1.10;;;23.10;74.20;;;;;;4995385;28;20746;-76
2022/05/21 16:19:47;;;;;;;2.43;1.17;;;23.10;72.30;;;;;;4995757;28;20202;-77
2022/05/21 16:22:17;;;;;;;3.13;0.90;;;23.00;70.30;;;;;;4991332;28;20289;-78
2022/05/21 16:24:47;;;;;;;1.07;0.80;;;23.00;70.40;;;;;;4995137;28;20229;-76
2022/05/21 16:27:21;;;;;;;2.53;1.03;;;22.80;72.50;;;;;;4994712;28;20207;-77
2022/05/21 16:29:52;;;;;;;0.97;0.80;;;22.70;73.20;;;;;;4995828;28;20252;-76
2022/05/21 16:32:23;;;;;;;0.87;0.80;;;22.60;71.00;;;;;;4991946;28;20209;-75
2022/05/21 16:34:53;;;;;;;0.87;0.70;;;22.40;71.60;;;;;;4996516;28;20704;-77
2022/05/21 16:37:22;;;;;;;2.77;0.70;;;22.40;71.60;;;;;;4994816;28;20215;-78
2022/05/21 16:39:52;;;;;;;1.07;0.80;;;22.40;71.60;;;;;;4996359;28;20309;-76
2022/05/21 16:42:20;;;;;;;2.20;0.93;;;22.30;72.40;;;;;;4992800;28;20318;-76
2022/05/21 16:44:50;;;;;;;1.37;0.80;;;22.20;72.00;;;;;;4995964;28;20210;-77
2022/05/21 16:47:18;;;;;;;1.10;0.90;;;22.10;73.80;;;;;;4994962;28;20234;-78
2022/05/21 16:49:46;;;;;;;1.60;0.83;;;22.10;73.40;;;;;;4994593;28;20731;-78
2022/05/21 16:52:15;;;;;;;2.13;0.80;;;22.10;71.60;;;;;;4992746;28;20261;-78
2022/05/21 16:54:44;;;;;;;0.80;0.73;;;22.10;73.40;;;;;;4994859;28;20214;-76
2022/05/21 16:57:14;;;;;;;3.63;1.00;;;22.00;73.10;;;;;;4994962;28;20226;-76
2022/05/21 16:59:42;;;;;;;1.17;0.80;;;21.90;71.40;;;;;;4994779;28;20214;-78
2022/05/21 17:02:11;;;;;;;1.00;0.80;;;21.80;72.40;;;;;;4997550;28;20205;-78
2022/05/21 17:04:42;;;;;;;2.40;0.83;;;21.80;71.80;;;;;;4994420;28;20233;-77
2022/05/21 17:07:11;;;;;;;2.23;0.80;;;21.70;72.30;;;;;;4994274;28;20190;-76
2022/05/21 17:09:39;;;;;;;1.37;1.00;;;21.70;71.60;;;;;;4994181;28;20210;-76
2022/05/21 17:12:08;;;;;;;0.80;0.80;;;21.40;72.70;;;;;;4992954;28;20242;-77
2022/05/21 17:14:38;;;;;;;0.83;0.83;;;21.30;73.50;;;;;;4994671;28;20261;-77
2022/05/21 17:17:06;;;;;;;2.90;0.90;;;21.20;73.70;;;;;;4994131;28;20762;-78
2022/05/21 17:19:35;;;;;;;0.67;0.67;;;21.10;74.70;;;;;;4994228;28;20250;-77
2022/05/21 17:22:09;;;;;;;2.00;0.60;;;21.00;74.30;;;;;;4995127;28;20235;-76
2022/05/21 17:24:38;;;;;;;0.73;0.70;;;21.00;74.40;;;;;;4996224;28;20224;-77
2022/05/21 17:32:48;;;;;;;3.30;1.20;;;20.80;75.20;;;;;;4993140;28;20245;-77
2022/05/21 17:35:17;;;;;;;3.40;1.00;;;20.70;76.40;;;;;;4966771;28;20645;-76
2022/05/21 17:37:46;;;;;;;2.70;1.13;;;20.60;77.40;;;;;;4974091;28;20239;-76
2022/05/21 17:40:15;;;;;;;1.97;1.07;;;20.60;78.10;;;;;;4976863;28;20246;-76
2022/05/21 17:42:44;;;;;;;1.73;0.80;;;20.40;78.20;;;;;;4993666;28;20584;-77
2022/05/21 17:45:16;;;;;;;1.70;0.80;;;20.40;78.60;;;;;;4993833;28;20582;-76
2022/05/21 17:47:45;;;;;;;3.80;0.80;;;20.30;78.70;;;;;;4993656;28;20245;-75
2022/05/21 17:50:18;;;;;;;2.67;1.00;;;20.10;78.30;;;;;;4993137;28;20211;-75
2022/05/21 17:52:46;;;;;;;2.30;1.00;;;20.10;79.40;;;;;;4993250;28;20744;-77
2022/05/21 17:55:15;;;;;;;5.27;0.90;;;20.00;80.10;;;;;;4993348;28;20261;-78
2022/05/21 17:57:43;;;;;;;1.90;0.93;;;19.90;80.70;;;;;;4993344;28;20226;-77